createdAt,value
2023-03-17T00:00:19.966Z,21.10
2023-03-17T00:02:46.734Z,21.20
2023-03-17T00:04:44.120Z,23.20
2023-03-17T00:06:42.368Z,20.30
2023-03-17T00:08:36.747Z,23.10
2023-03-17T00:10:30.644Z,21.70
2023-03-17T00:12:26.382Z,19.80
2023-03-17T00:14:20.523Z,22.20
2023-03-17T00:16:20.840Z,23.00
2023-03-17T00:18:16.465Z,22.60
2023-03-17T00:20:19.058Z,23.20
2023-03-17T00:22:17.944Z,21.30
2023-03-17T00:24:14.752Z,22.00
2023-03-17T00:26:10.843Z,23.00
2023-03-17T00:28:08.363Z,25.40
2023-03-17T00:30:02.396Z,23.20
2023-03-17T00:32:00.999Z,23.20
2023-03-17T00:33:55.922Z,20.40
2023-03-17T00:35:52.975Z,23.30
2023-03-17T00:37:47.132Z,26.60
2023-03-17T00:39:40.942Z,26.70
2023-03-17T00:41:34.773Z,27.60
2023-03-17T00:43:30.806Z,26.30
2023-03-17T00:45:27.479Z,27.40
2023-03-17T00:47:21.496Z,23.40
2023-03-17T00:49:19.575Z,23.00
2023-03-17T00:51:13.571Z,23.80
2023-03-17T00:53:15.024Z,26.70
2023-03-17T00:55:12.270Z,30.00
2023-03-17T00:57:13.018Z,29.20
2023-03-17T00:59:21.037Z,26.50
2023-03-17T01:01:14.570Z,27.50
2023-03-17T01:03:12.599Z,29.60
2023-03-17T01:05:07.671Z,34.20
2023-03-17T01:07:02.432Z,30.30
2023-03-17T01:08:57.214Z,32.50
2023-03-17T01:10:51.403Z,29.50
2023-03-17T01:12:46.699Z,33.20
2023-03-17T01:14:42.542Z,30.50
2023-03-17T01:16:37.157Z,33.00
2023-03-17T01:18:31.109Z,33.70
2023-03-17T01:20:29.076Z,34.90
2023-03-17T01:22:23.313Z,30.60
2023-03-17T01:24:17.628Z,28.30
2023-03-17T01:26:12.083Z,27.70
2023-03-17T01:28:14.874Z,31.40
2023-03-17T01:30:31.211Z,28.60
2023-03-17T01:32:26.147Z,29.20
2023-03-17T01:34:20.150Z,33.50
2023-03-17T01:36:14.251Z,30.40
2023-03-17T01:38:11.038Z,30.20
2023-03-17T01:40:14.247Z,33.20
2023-03-17T01:42:08.707Z,29.40
2023-03-17T01:44:04.692Z,32.80
2023-03-17T01:46:20.876Z,33.00
2023-03-17T01:48:15.731Z,27.40
2023-03-17T01:50:13.523Z,29.90
2023-03-17T01:52:14.594Z,32.10
2023-03-17T01:54:26.371Z,29.10
2023-03-17T01:56:20.128Z,32.20
2023-03-17T01:58:17.175Z,28.90
2023-03-17T02:00:18.134Z,31.20
2023-03-17T02:02:15.099Z,31.20
2023-03-17T02:04:08.722Z,28.10
2023-03-17T02:06:02.793Z,29.50
2023-03-17T02:07:56.556Z,31.00
2023-03-17T02:09:56.058Z,31.50
2023-03-17T02:11:49.433Z,28.70
2023-03-17T02:13:44.827Z,30.70
2023-03-17T02:15:43.920Z,30.40
2023-03-17T02:19:31.449Z,30.50
2023-03-17T02:21:59.212Z,33.70
2023-03-17T02:23:52.266Z,31.10
2023-03-17T02:25:47.728Z,30.60
2023-03-17T02:27:48.043Z,31.20
2023-03-17T02:29:42.106Z,30.60
2023-03-17T02:31:35.707Z,30.80
2023-03-17T02:33:28.893Z,29.10
2023-03-17T02:35:22.446Z,33.90
2023-03-17T02:37:16.775Z,30.90
2023-03-17T02:39:09.790Z,36.50
2023-03-17T02:41:03.648Z,36.10
2023-03-17T02:42:56.909Z,35.00
2023-03-17T02:44:55.176Z,32.70
2023-03-17T02:46:48.236Z,31.70
2023-03-17T02:48:41.999Z,30.90
2023-03-17T02:50:35.108Z,34.20
2023-03-17T02:52:28.302Z,33.80
2023-03-17T02:54:21.250Z,36.90
2023-03-17T02:56:14.299Z,34.50
2023-03-17T02:58:07.578Z,36.10
2023-03-17T03:00:01.013Z,34.30
2023-03-17T03:01:56.239Z,36.70
2023-03-17T03:03:49.582Z,31.90
2023-03-17T03:05:43.034Z,32.20
2023-03-17T03:07:36.508Z,32.80
2023-03-17T03:09:30.227Z,31.70
2023-03-17T03:11:23.520Z,34.00
2023-03-17T03:13:16.979Z,35.90
2023-03-17T03:15:10.751Z,36.10
2023-03-17T03:17:04.783Z,32.30
2023-03-17T03:18:58.280Z,33.20
2023-03-17T03:20:51.539Z,34.10
2023-03-17T03:22:44.691Z,34.00
2023-03-17T03:24:37.953Z,34.30
2023-03-17T03:26:31.210Z,33.60
2023-03-17T03:28:24.557Z,33.50
2023-03-17T03:30:18.430Z,35.60
2023-03-17T03:32:11.387Z,32.00
2023-03-17T03:34:04.448Z,35.50
2023-03-17T03:35:58.257Z,36.70
2023-03-17T03:37:51.450Z,35.40
2023-03-17T03:39:45.017Z,37.80
2023-03-17T03:41:38.165Z,36.00
2023-03-17T03:43:31.315Z,33.10
2023-03-17T03:45:24.469Z,36.80
2023-03-17T03:47:17.519Z,35.20
2023-03-17T03:49:10.770Z,38.40
2023-03-17T03:51:04.386Z,40.40
2023-03-17T03:52:57.795Z,37.30
2023-03-17T03:54:51.047Z,35.00
2023-03-17T03:56:44.204Z,40.70
2023-03-17T03:58:37.266Z,36.30
2023-03-17T04:00:30.509Z,32.70
2023-03-17T04:02:24.582Z,33.80
2023-03-17T04:04:19.037Z,35.20
2023-03-17T04:06:13.406Z,33.10
2023-03-17T04:08:07.401Z,40.00
2023-03-17T04:10:01.323Z,38.10
2023-03-17T04:11:55.337Z,35.20
2023-03-17T04:13:48.617Z,37.00
2023-03-17T04:15:42.592Z,37.20
2023-03-17T04:17:35.610Z,33.70
2023-03-17T04:19:29.104Z,41.60
2023-03-17T04:21:22.363Z,32.40
2023-03-17T04:23:15.409Z,37.20
2023-03-17T04:25:10.606Z,34.20
2023-03-17T04:27:05.935Z,35.20
2023-03-17T04:28:59.173Z,33.90
2023-03-17T04:30:52.221Z,32.40
2023-03-17T04:32:46.613Z,32.00
2023-03-17T04:34:40.287Z,36.10
2023-03-17T04:36:33.735Z,35.40
2023-03-17T04:38:27.077Z,31.50
2023-03-17T04:40:20.300Z,37.50
2023-03-17T04:42:13.695Z,34.00
2023-03-17T04:44:07.665Z,34.80
2023-03-17T04:46:01.067Z,34.20
2023-03-17T04:47:54.075Z,34.40
2023-03-17T04:49:47.023Z,33.10
2023-03-17T04:51:40.087Z,38.80
2023-03-17T04:53:33.897Z,34.10
2023-03-17T04:55:28.223Z,38.00
2023-03-17T04:57:22.287Z,40.60
2023-03-17T04:59:16.386Z,36.90
2023-03-17T05:01:10.127Z,37.80
2023-03-17T05:03:04.387Z,38.40
2023-03-17T05:04:58.805Z,35.60
2023-03-17T05:06:52.160Z,35.60
2023-03-17T05:08:45.518Z,36.30
2023-03-17T05:10:38.464Z,38.10
2023-03-17T05:12:31.829Z,36.90
2023-03-17T05:14:25.235Z,34.30
2023-03-17T05:16:18.450Z,37.60
2023-03-17T05:18:11.799Z,34.60
2023-03-17T05:20:05.868Z,39.60
2023-03-17T05:21:58.987Z,41.30
2023-03-17T05:23:54.584Z,45.80
2023-03-17T05:25:48.811Z,42.90
2023-03-17T05:27:41.760Z,41.70
2023-03-17T05:29:34.806Z,38.00
2023-03-17T05:31:27.985Z,38.20
2023-03-17T05:33:21.902Z,38.70
2023-03-17T05:35:15.189Z,35.80
2023-03-17T05:37:08.957Z,35.40
2023-03-17T05:39:02.003Z,37.20
2023-03-17T05:40:55.258Z,35.40
2023-03-17T05:42:48.211Z,36.00
2023-03-17T05:44:41.270Z,35.80
2023-03-17T05:46:34.520Z,36.60
2023-03-17T05:48:27.779Z,33.90
2023-03-17T05:50:20.818Z,33.30
2023-03-17T05:52:14.298Z,34.60
2023-03-17T05:54:08.882Z,32.60
2023-03-17T05:56:02.456Z,34.80
2023-03-17T05:57:55.684Z,28.60
2023-03-17T05:59:49.042Z,32.70
2023-03-17T06:01:42.509Z,31.30
2023-03-17T06:03:38.834Z,32.00
2023-03-17T06:05:32.296Z,33.10
2023-03-17T06:07:25.776Z,33.80
2023-03-17T06:09:19.561Z,32.00
2023-03-17T06:11:13.801Z,36.80
2023-03-17T06:13:07.090Z,30.50
2023-03-17T06:15:00.118Z,33.70
2023-03-17T06:16:53.259Z,33.40
2023-03-17T06:18:46.206Z,32.70
2023-03-17T06:20:39.268Z,33.50
2023-03-17T06:22:32.942Z,32.90
2023-03-17T06:24:26.382Z,28.30
2023-03-17T06:26:20.152Z,32.70
2023-03-17T06:28:13.506Z,34.20
2023-03-17T06:30:08.372Z,36.20
2023-03-17T06:32:16.996Z,31.30
2023-03-17T06:34:12.734Z,33.80
2023-03-17T06:36:06.545Z,31.00
2023-03-17T06:38:01.327Z,35.90
2023-03-17T06:39:54.338Z,33.00
2023-03-17T06:41:47.389Z,31.70
2023-03-17T06:43:41.382Z,28.70
2023-03-17T06:45:34.795Z,31.80
2023-03-17T06:47:28.385Z,32.50
2023-03-17T06:49:21.470Z,34.40
2023-03-17T06:51:14.452Z,35.60
2023-03-17T06:53:07.428Z,31.70
2023-03-17T06:55:00.587Z,32.50
2023-03-17T06:56:53.965Z,33.90
2023-03-17T06:58:50.065Z,32.50
2023-03-17T07:00:45.581Z,34.60
2023-03-17T07:02:38.626Z,31.00
2023-03-17T07:04:32.126Z,33.60
2023-03-17T07:06:25.360Z,33.50
2023-03-17T07:08:18.393Z,28.60
2023-03-17T07:10:13.770Z,27.70
2023-03-17T07:12:06.950Z,33.10
2023-03-17T07:13:59.878Z,32.20
2023-03-17T07:15:55.429Z,26.40
2023-03-17T07:17:48.556Z,29.90
2023-03-17T07:19:42.460Z,26.90
2023-03-17T07:21:35.509Z,31.10
2023-03-17T07:23:29.758Z,28.60
2023-03-17T07:25:23.019Z,25.60
2023-03-17T07:27:16.710Z,29.00
2023-03-17T07:29:12.596Z,27.50
2023-03-17T07:31:08.987Z,26.90
2023-03-17T07:33:02.335Z,29.60
2023-03-17T07:34:55.555Z,27.40
2023-03-17T07:36:48.587Z,29.00
2023-03-17T07:38:41.840Z,26.40
2023-03-17T07:40:35.602Z,26.10
2023-03-17T07:42:29.183Z,25.00
2023-03-17T07:44:23.659Z,29.60
2023-03-17T07:46:42.758Z,27.90
2023-03-17T07:48:38.435Z,27.00
2023-03-17T07:50:35.659Z,30.30
2023-03-17T07:52:28.801Z,30.80
2023-03-17T07:54:22.493Z,29.20
2023-03-17T07:56:18.410Z,32.30
2023-03-17T07:58:15.796Z,27.80
2023-03-17T08:00:10.957Z,25.00
2023-03-17T08:02:06.795Z,29.40
2023-03-17T08:04:00.576Z,29.30
2023-03-17T08:05:55.976Z,29.60
2023-03-17T08:07:49.260Z,29.80
2023-03-17T08:09:42.227Z,30.00
2023-03-17T08:11:36.116Z,28.00
2023-03-17T08:13:30.921Z,30.20
2023-03-17T08:15:24.557Z,29.30
2023-03-17T08:17:18.382Z,25.00
2023-03-17T08:19:11.925Z,30.40
2023-03-17T08:21:05.784Z,28.10
2023-03-17T08:22:59.353Z,25.00
2023-03-17T08:24:52.278Z,28.40
2023-03-17T08:26:49.139Z,27.50
2023-03-17T08:28:43.127Z,30.00
2023-03-17T08:30:38.419Z,29.30
2023-03-17T08:32:31.763Z,30.30
2023-03-17T08:34:26.504Z,27.20
2023-03-17T08:36:20.962Z,27.70
2023-03-17T08:38:13.993Z,28.90
2023-03-17T08:40:10.021Z,27.20
2023-03-17T08:42:04.394Z,26.50
2023-03-17T08:43:58.779Z,33.00
2023-03-17T08:45:51.995Z,28.10
2023-03-17T08:47:46.416Z,27.70
2023-03-17T08:49:39.462Z,25.20
2023-03-17T08:51:34.908Z,24.50
2023-03-17T08:53:27.930Z,29.20
2023-03-17T08:55:21.072Z,27.00
2023-03-17T08:57:15.666Z,28.90
2023-03-17T08:59:11.318Z,26.80
2023-03-17T09:01:05.326Z,25.30
2023-03-17T09:02:58.749Z,23.10
2023-03-17T09:04:52.136Z,24.80
2023-03-17T09:07:01.874Z,23.30
2023-03-17T09:08:56.191Z,28.00
2023-03-17T09:10:49.545Z,23.90
2023-03-17T09:12:43.693Z,21.80
2023-03-17T09:14:43.376Z,24.90
2023-03-17T09:16:37.555Z,23.50
2023-03-17T09:18:33.153Z,21.70
2023-03-17T09:20:26.394Z,23.40
2023-03-17T09:22:19.828Z,24.30
2023-03-17T09:24:13.900Z,20.70
2023-03-17T09:26:14.738Z,20.90
2023-03-17T09:28:08.011Z,20.20
2023-03-17T09:30:02.692Z,22.90
2023-03-17T09:31:58.391Z,22.20
2023-03-17T09:33:52.590Z,20.90
2023-03-17T09:35:45.803Z,23.10
2023-03-17T09:37:38.993Z,22.80
2023-03-17T09:39:31.933Z,21.80
2023-03-17T09:41:33.781Z,20.60
2023-03-17T09:43:57.088Z,22.60
2023-03-17T09:45:52.495Z,20.80
2023-03-17T09:48:05.152Z,22.60
2023-03-17T09:50:02.117Z,21.00
2023-03-17T09:51:56.382Z,20.70
2023-03-17T09:53:54.911Z,23.50
2023-03-17T09:55:52.821Z,24.00
2023-03-17T09:57:46.284Z,21.50
2023-03-17T09:59:43.930Z,21.70
2023-03-17T10:01:41.743Z,20.50
2023-03-17T10:03:35.111Z,25.10
2023-03-17T10:05:35.730Z,21.70
2023-03-17T10:07:49.729Z,23.60
2023-03-17T10:09:52.928Z,21.20
2023-03-17T10:11:48.808Z,22.10
2023-03-17T10:14:00.828Z,22.60
2023-03-17T10:16:03.798Z,23.10
2023-03-17T10:17:57.066Z,21.60
2023-03-17T10:20:05.291Z,22.20
2023-03-17T10:22:16.154Z,27.20
2023-03-17T10:24:10.833Z,21.40
2023-03-17T10:26:26.538Z,24.50
2023-03-17T10:28:28.901Z,20.80
2023-03-17T10:30:23.793Z,23.40
2023-03-17T10:32:16.837Z,25.70
2023-03-17T10:34:17.455Z,23.90
2023-03-17T10:36:14.854Z,26.30
2023-03-17T10:38:20.881Z,21.50
2023-03-17T10:40:25.590Z,21.20
2023-03-17T10:42:33.075Z,23.80
2023-03-17T10:44:36.092Z,23.60
2023-03-17T10:46:31.275Z,26.00
2023-03-17T10:48:25.229Z,27.40
2023-03-17T10:50:32.367Z,24.70
2023-03-17T10:52:30.412Z,26.10
2023-03-17T10:54:28.856Z,24.10
2023-03-17T10:58:36.567Z,22.30
2023-03-17T11:00:35.354Z,23.10
2023-03-17T11:02:31.792Z,25.20
2023-03-17T11:04:35.771Z,24.20
2023-03-17T11:06:37.829Z,21.50
2023-03-17T11:08:36.942Z,22.90
2023-03-17T11:10:38.725Z,23.40
2023-03-17T11:12:39.397Z,24.90
2023-03-17T11:14:32.738Z,24.70
2023-03-17T11:16:27.222Z,24.00
2023-03-17T11:18:28.167Z,24.40
2023-03-17T11:20:42.364Z,24.20
2023-03-17T11:22:41.768Z,22.30
2023-03-17T11:24:45.660Z,23.80
2023-03-17T11:26:59.498Z,24.20
2023-03-17T11:29:11.592Z,20.40
2023-03-17T11:31:33.374Z,24.70
2023-03-17T11:33:26.775Z,26.70
2023-03-17T11:35:27.299Z,25.00
2023-03-17T11:37:49.865Z,26.60
2023-03-17T11:39:55.588Z,26.50
2023-03-17T11:41:57.856Z,25.80
2023-03-17T11:44:38.631Z,25.70
2023-03-17T11:46:46.732Z,28.40
2023-03-17T11:49:00.872Z,26.80
2023-03-17T11:51:30.519Z,26.50
2023-03-17T11:53:38.707Z,22.50
2023-03-17T11:55:42.491Z,25.70
2023-03-17T11:57:48.336Z,24.10
2023-03-17T12:00:08.862Z,23.20
2023-03-17T12:02:21.721Z,21.60
2023-03-17T12:04:49.792Z,25.10
2023-03-17T12:06:50.874Z,24.40
2023-03-17T12:09:03.373Z,23.70
2023-03-17T12:11:01.224Z,25.90
2023-03-17T12:13:22.134Z,25.50
2023-03-17T12:15:22.469Z,23.90
2023-03-17T12:17:35.074Z,24.20
2023-03-17T12:19:42.629Z,22.40
2023-03-17T12:21:42.078Z,23.40
2023-03-17T12:23:48.228Z,22.30
2023-03-17T12:25:51.905Z,25.00
2023-03-17T12:28:28.681Z,21.20
2023-03-17T12:30:30.298Z,21.70
2023-03-17T12:32:29.581Z,23.60
2023-03-17T12:34:36.881Z,21.40
2023-03-17T12:36:30.069Z,19.90
2023-03-17T12:38:38.283Z,19.60
2023-03-17T12:41:09.950Z,17.20
2023-03-17T12:43:19.304Z,17.80
2023-03-17T12:45:34.436Z,21.70
2023-03-17T12:47:46.122Z,18.00
2023-03-17T12:50:33.139Z,17.70
2023-03-17T12:52:42.672Z,16.80
2023-03-17T12:54:38.081Z,19.40
2023-03-17T12:56:34.097Z,18.00
2023-03-17T12:58:36.524Z,19.30
2023-03-17T13:01:05.341Z,16.70
2023-03-17T13:03:16.701Z,15.20
2023-03-17T13:05:16.448Z,16.10
2023-03-17T13:07:36.220Z,16.90
2023-03-17T13:09:32.150Z,18.10
2023-03-17T13:11:29.700Z,15.20
2023-03-17T13:13:40.979Z,16.90
2023-03-17T13:15:34.229Z,16.90
2023-03-17T13:17:28.615Z,21.00
2023-03-17T13:19:24.308Z,15.50
2023-03-17T13:21:23.732Z,12.00
2023-03-17T13:23:21.343Z,17.20
2023-03-17T13:25:14.378Z,14.10
2023-03-17T13:27:13.398Z,23.40
2023-03-17T13:29:26.130Z,14.80
2023-03-17T13:31:32.138Z,18.10
2023-03-17T13:33:32.607Z,14.10
2023-03-17T13:35:46.928Z,16.50
2023-03-17T13:38:07.712Z,17.70
2023-03-17T13:42:59.198Z,14.10
2023-03-17T13:45:09.042Z,13.50
2023-03-17T13:47:24.515Z,12.50
2023-03-17T13:49:24.298Z,10.40
2023-03-17T13:51:25.879Z,11.90
2023-03-17T13:53:24.687Z,11.30
2023-03-17T13:55:18.562Z,11.40
2023-03-17T13:57:23.497Z,12.30
2023-03-17T13:59:23.363Z,11.40
2023-03-17T14:01:17.701Z,13.70
2023-03-17T14:03:36.580Z,13.80
2023-03-17T14:05:35.193Z,13.10
2023-03-17T14:07:48.102Z,10.40
2023-03-17T14:09:42.457Z,9.90
2023-03-17T14:11:40.478Z,11.20
2023-03-17T14:13:49.735Z,11.70
2023-03-17T14:15:56.523Z,11.70
2023-03-17T14:18:01.685Z,10.20
2023-03-17T14:20:09.022Z,13.00
2023-03-17T14:22:04.762Z,11.00
2023-03-17T14:24:04.370Z,11.10
2023-03-17T14:26:02.862Z,12.40
2023-03-17T14:27:58.647Z,12.70
2023-03-17T14:29:53.698Z,14.80
2023-03-17T14:31:52.393Z,12.00
2023-03-17T14:33:45.725Z,11.90
2023-03-17T14:35:43.344Z,12.60
2023-03-17T14:37:38.388Z,14.00
2023-03-17T14:39:32.350Z,12.20
2023-03-17T14:41:29.464Z,14.90
2023-03-17T14:43:23.266Z,11.60
2023-03-17T14:45:39.519Z,13.70
2023-03-17T14:47:41.517Z,11.00
2023-03-17T14:49:34.876Z,13.40
2023-03-17T14:51:33.115Z,15.10
2023-03-17T14:55:20.779Z,14.70
2023-03-17T14:57:16.003Z,14.10
2023-03-17T14:59:35.766Z,13.30
2023-03-17T15:01:43.669Z,14.60
2023-03-17T15:03:42.427Z,14.00
2023-03-17T15:05:44.001Z,18.80
2023-03-17T15:07:42.492Z,15.50
2023-03-17T15:09:41.196Z,14.20
2023-03-17T15:11:41.801Z,15.90
2023-03-17T15:13:44.513Z,27.90
2023-03-17T15:15:41.817Z,15.90
2023-03-17T15:17:38.040Z,13.50
2023-03-17T15:19:45.442Z,14.20
2023-03-17T15:21:41.604Z,12.50
2023-03-17T15:23:40.727Z,13.20
2023-03-17T15:25:36.681Z,13.20
2023-03-17T15:27:32.474Z,14.40
2023-03-17T15:29:32.598Z,13.30
2023-03-17T15:31:29.623Z,12.20
2023-03-17T15:33:28.657Z,12.00
2023-03-17T15:35:21.938Z,14.50
2023-03-17T15:37:27.947Z,11.80
2023-03-17T15:39:20.995Z,14.50
2023-03-17T15:41:14.049Z,13.40
2023-03-17T15:43:07.401Z,12.50
2023-03-17T15:45:01.784Z,14.10
2023-03-17T15:46:54.836Z,12.70
2023-03-17T15:48:48.192Z,14.10
2023-03-17T15:50:41.344Z,15.10
2023-03-17T15:52:36.721Z,13.70
2023-03-17T15:54:30.336Z,14.90
2023-03-17T15:56:23.621Z,15.50
2023-03-17T15:58:16.729Z,15.50
2023-03-17T16:00:15.194Z,14.80
2023-03-17T16:02:26.466Z,13.20
2023-03-17T16:04:19.874Z,13.20
2023-03-17T16:06:22.115Z,13.90
2023-03-17T16:08:18.180Z,14.10
2023-03-17T16:10:20.720Z,14.30
2023-03-17T16:12:14.365Z,15.70
2023-03-17T16:14:07.368Z,14.00
2023-03-17T16:16:05.536Z,15.20
2023-03-17T16:19:53.620Z,15.30
2023-03-17T16:21:47.370Z,14.40
2023-03-17T16:23:40.645Z,15.40
2023-03-17T16:25:34.408Z,13.90
2023-03-17T16:27:28.168Z,17.80
2023-03-17T16:29:22.647Z,16.00
2023-03-17T16:31:19.878Z,19.50
2023-03-17T16:33:21.477Z,20.00
2023-03-17T16:35:22.736Z,20.20
2023-03-17T16:37:16.781Z,19.90
2023-03-17T16:39:18.755Z,25.80
2023-03-17T16:41:19.214Z,20.40
2023-03-17T16:43:25.560Z,23.50
2023-03-17T16:45:27.196Z,21.10
2023-03-17T16:47:20.233Z,19.40
2023-03-17T16:49:18.880Z,18.30
2023-03-17T16:53:04.910Z,18.00
2023-03-17T16:54:57.961Z,20.40
2023-03-17T16:56:51.025Z,18.40
2023-03-17T16:58:45.137Z,18.90
2023-03-17T17:00:38.247Z,19.60
2023-03-17T17:02:31.313Z,18.80
2023-03-17T17:04:24.956Z,16.50
2023-03-17T17:06:19.552Z,16.00
2023-03-17T17:08:12.903Z,18.90
2023-03-17T17:10:06.053Z,17.20
2023-03-17T17:12:03.718Z,17.60
2023-03-17T17:13:58.471Z,21.30
2023-03-17T17:15:51.613Z,22.40
2023-03-17T17:18:06.981Z,21.40
2023-03-17T17:20:02.118Z,20.10
2023-03-17T17:21:55.388Z,17.70
2023-03-17T17:23:48.631Z,21.20
2023-03-17T17:25:42.102Z,20.20
2023-03-17T17:27:35.312Z,21.30
2023-03-17T17:29:29.664Z,22.80
2023-03-17T17:31:23.847Z,20.10
2023-03-17T17:33:18.414Z,19.60
2023-03-17T17:35:12.680Z,21.10
2023-03-17T17:37:05.946Z,20.50
2023-03-17T17:38:59.102Z,20.40
2023-03-17T17:40:53.365Z,22.80
2023-03-17T17:42:46.936Z,19.90
2023-03-17T17:44:40.137Z,22.70
2023-03-17T17:46:33.766Z,23.40
2023-03-17T17:48:28.130Z,23.00
2023-03-17T17:50:25.730Z,23.00
2023-03-17T17:52:19.763Z,24.20
2023-03-17T17:54:13.013Z,22.20
2023-03-17T17:56:07.132Z,23.50
2023-03-17T17:58:00.970Z,25.90
2023-03-17T17:59:54.876Z,24.40
2023-03-17T18:01:47.982Z,27.30
2023-03-17T18:03:43.170Z,26.20
2023-03-17T18:05:37.055Z,32.80
2023-03-17T18:07:30.099Z,36.00
2023-03-17T18:09:23.765Z,37.10
2023-03-17T18:11:18.050Z,28.00
2023-03-17T18:13:11.096Z,28.80
2023-03-17T18:15:05.589Z,29.50
2023-03-17T18:16:58.935Z,31.80
2023-03-17T18:18:52.088Z,32.70
2023-03-17T18:20:45.142Z,30.20
2023-03-17T18:22:38.393Z,28.40
2023-03-17T18:24:31.383Z,31.40
2023-03-17T18:26:24.608Z,27.30
2023-03-17T18:28:18.162Z,26.50
2023-03-17T18:30:26.771Z,35.10
2023-03-17T18:32:19.926Z,34.90
2023-03-17T18:34:20.350Z,38.80
2023-03-17T18:36:13.710Z,35.10
2023-03-17T18:38:08.509Z,37.40
2023-03-17T18:40:14.423Z,36.10
2023-03-17T18:42:08.810Z,30.40
2023-03-17T18:44:02.606Z,33.30
2023-03-17T18:45:55.665Z,37.10
2023-03-17T18:47:48.705Z,39.40
2023-03-17T18:49:44.923Z,37.70
2023-03-17T18:51:39.718Z,37.90
2023-03-17T18:53:34.747Z,32.10
2023-03-17T18:55:27.736Z,34.10
2023-03-17T18:57:21.644Z,32.00
2023-03-17T18:59:29.066Z,28.60
2023-03-17T19:01:23.020Z,28.50
2023-03-17T19:03:16.193Z,29.30
2023-03-17T19:05:09.716Z,29.70
2023-03-17T19:07:02.769Z,30.50
2023-03-17T19:08:56.333Z,31.20
2023-03-17T19:10:49.988Z,30.10
2023-03-17T19:12:45.603Z,30.10
2023-03-17T19:14:40.494Z,34.40
2023-03-17T19:16:33.673Z,31.40
2023-03-17T19:18:27.617Z,32.90
2023-03-17T19:20:20.676Z,30.00
2023-03-17T19:22:14.941Z,31.20
2023-03-17T19:24:11.818Z,35.10
2023-03-17T19:26:06.177Z,29.80
2023-03-17T19:27:59.724Z,30.20
2023-03-17T19:29:53.660Z,33.30
2023-03-17T19:31:49.654Z,33.50
2023-03-17T19:33:42.672Z,35.80
2023-03-17T19:35:35.746Z,37.80
2023-03-17T19:37:30.704Z,33.10
2023-03-17T19:39:24.283Z,39.00
2023-03-17T19:41:18.155Z,33.60
2023-03-17T19:43:11.711Z,35.50
2023-03-17T19:45:05.483Z,35.30
2023-03-17T19:47:01.829Z,37.20
2023-03-17T19:48:58.560Z,45.30
2023-03-17T19:50:52.218Z,46.00
2023-03-17T19:52:46.300Z,39.00
2023-03-17T19:54:44.790Z,40.10
2023-03-17T19:56:39.962Z,45.00
2023-03-17T19:58:36.223Z,38.70
2023-03-17T20:00:34.363Z,36.30
2023-03-17T20:02:29.184Z,39.90
2023-03-17T20:04:23.361Z,38.80
2023-03-17T20:06:20.678Z,44.60
2023-03-17T20:08:14.866Z,49.60
2023-03-17T20:10:10.098Z,44.20
2023-03-17T20:12:04.942Z,43.80
2023-03-17T20:14:00.690Z,40.50
2023-03-17T20:15:54.655Z,41.60
2023-03-17T20:17:48.218Z,43.60
2023-03-17T20:19:42.076Z,43.60
2023-03-17T20:21:37.370Z,42.10
2023-03-17T20:23:30.679Z,44.20
2023-03-17T20:25:23.674Z,46.70
2023-03-17T20:27:17.546Z,47.90
2023-03-17T20:29:15.161Z,47.00
2023-03-17T20:31:09.606Z,46.40
2023-03-17T20:33:06.754Z,51.30
2023-03-17T20:35:00.096Z,47.60
2023-03-17T20:36:53.758Z,53.40
2023-03-17T20:38:49.740Z,50.20
2023-03-17T20:40:46.207Z,48.20
2023-03-17T20:42:42.636Z,60.70
2023-03-17T20:44:37.739Z,59.80
2023-03-17T20:46:31.326Z,51.50
2023-03-17T20:48:24.559Z,53.40
2023-03-17T20:50:17.712Z,54.10
2023-03-17T20:52:14.548Z,52.80
2023-03-17T20:54:10.974Z,51.90
2023-03-17T20:56:04.825Z,52.90
2023-03-17T20:57:59.896Z,55.20
2023-03-17T20:59:56.169Z,52.40
2023-03-17T21:01:50.129Z,57.30
2023-03-17T21:03:44.938Z,55.50
2023-03-17T21:05:38.088Z,57.40
2023-03-17T21:07:31.552Z,56.70
2023-03-17T21:09:36.884Z,60.20
2023-03-17T21:11:31.371Z,60.90
2023-03-17T21:13:24.519Z,54.80
2023-03-17T21:15:18.595Z,59.40
2023-03-17T21:17:12.670Z,54.30
2023-03-17T21:19:13.424Z,52.90
2023-03-17T21:21:07.889Z,63.60
2023-03-17T21:23:04.839Z,60.80
2023-03-17T21:25:01.363Z,57.90
2023-03-17T21:26:55.042Z,58.30
2023-03-17T21:28:52.682Z,57.60
2023-03-17T21:30:45.733Z,55.90
2023-03-17T21:32:39.947Z,57.60
2023-03-17T21:34:38.175Z,58.60
2023-03-17T21:36:33.766Z,60.70
2023-03-17T21:38:28.589Z,52.30
2023-03-17T21:40:22.561Z,57.90
2023-03-17T21:42:18.064Z,57.80
2023-03-17T21:44:15.956Z,60.70
2023-03-17T21:46:09.132Z,58.60
2023-03-17T21:48:02.233Z,58.30
2023-03-17T21:49:55.600Z,65.50
2023-03-17T21:51:49.566Z,57.50
2023-03-17T21:53:43.021Z,55.80
2023-03-17T21:55:36.287Z,58.50
2023-03-17T21:57:29.843Z,56.80
2023-03-17T21:59:23.686Z,60.40
2023-03-17T22:01:18.326Z,54.30
2023-03-17T22:03:11.375Z,62.20
2023-03-17T22:05:11.106Z,57.10
2023-03-17T22:07:05.229Z,64.20
2023-03-17T22:08:58.486Z,56.90
2023-03-17T22:10:52.994Z,63.60
2023-03-17T22:12:45.960Z,63.30
2023-03-17T22:14:38.972Z,64.50
2023-03-17T22:16:32.038Z,68.00
2023-03-17T22:18:25.273Z,56.60
2023-03-17T22:20:18.837Z,63.00
2023-03-17T22:22:11.887Z,57.90
2023-03-17T22:24:05.970Z,63.40
2023-03-17T22:25:59.120Z,56.70
2023-03-17T22:27:53.803Z,66.30
2023-03-17T22:29:48.295Z,61.00
2023-03-17T22:31:42.125Z,63.40
2023-03-17T22:33:35.315Z,63.50
2023-03-17T22:35:28.893Z,62.70
2023-03-17T22:37:22.134Z,60.00
2023-03-17T22:39:15.388Z,67.80
2023-03-17T22:41:11.533Z,68.10
2023-03-17T22:43:04.969Z,63.10
2023-03-17T22:44:58.635Z,63.40
2023-03-17T22:46:51.587Z,60.90
2023-03-17T22:48:45.455Z,57.70
2023-03-17T22:50:38.406Z,56.20
2023-03-17T22:52:31.765Z,55.60
2023-03-17T22:54:24.814Z,55.50
2023-03-17T22:56:19.001Z,67.10
2023-03-17T22:58:12.347Z,58.30
2023-03-17T23:00:15.214Z,67.00
2023-03-17T23:02:08.701Z,53.80
2023-03-17T23:04:02.468Z,58.20
2023-03-17T23:05:59.743Z,57.20
2023-03-17T23:07:53.094Z,58.20
2023-03-17T23:09:46.622Z,60.10
2023-03-17T23:11:40.596Z,61.60
2023-03-17T23:13:35.303Z,55.40
2023-03-17T23:15:28.373Z,61.00
2023-03-17T23:17:21.907Z,63.00
2023-03-17T23:19:14.948Z,63.00
2023-03-17T23:21:09.134Z,59.90
2023-03-17T23:23:02.378Z,63.90
2023-03-17T23:24:55.432Z,51.70
2023-03-17T23:26:48.850Z,60.20
2023-03-17T23:28:41.944Z,58.40
2023-03-17T23:30:36.701Z,54.50
2023-03-17T23:32:29.821Z,59.10
2023-03-17T23:34:23.052Z,58.90
2023-03-17T23:36:17.768Z,53.90
2023-03-17T23:38:10.880Z,57.10
2023-03-17T23:40:06.463Z,52.40
2023-03-17T23:41:59.660Z,52.20
2023-03-17T23:43:52.689Z,52.40
2023-03-17T23:45:45.791Z,54.30
2023-03-17T23:47:38.909Z,55.00
2023-03-17T23:49:31.976Z,51.10
2023-03-17T23:51:24.992Z,57.90
2023-03-17T23:53:18.352Z,50.50
2023-03-17T23:55:12.224Z,54.90
2023-03-17T23:57:06.576Z,50.40
2023-03-17T23:58:59.958Z,59.90
